createdAt,value
2018-04-13T00:00:13.211Z,36.90
2018-04-13T00:01:13.209Z,38.60
2018-04-13T00:02:13.208Z,39.30
2018-04-13T00:03:13.230Z,38.00
2018-04-13T00:04:13.290Z,38.70
2018-04-13T00:05:13.289Z,37.90
2018-04-13T00:06:13.294Z,38.60
2018-04-13T00:07:13.305Z,40.00
2018-04-13T00:08:13.309Z,38.00
2018-04-13T00:09:13.316Z,37.90
2018-04-13T00:10:13.372Z,38.40
2018-04-13T00:11:13.384Z,38.00
2018-04-13T00:12:13.350Z,38.00
2018-04-13T00:13:13.357Z,38.80
2018-04-13T00:14:13.393Z,38.60
2018-04-13T00:15:13.406Z,38.50
2018-04-13T00:16:13.399Z,38.40
2018-04-13T00:17:13.420Z,39.10
2018-04-13T00:18:13.492Z,38.10
2018-04-13T00:19:13.447Z,39.10
2018-04-13T00:20:13.489Z,38.50
2018-04-13T00:21:13.495Z,38.20
2018-04-13T00:22:13.498Z,38.20
2018-04-13T00:23:13.504Z,37.50
2018-04-13T00:24:13.510Z,38.70
2018-04-13T00:25:13.522Z,39.20
2018-04-13T00:26:13.593Z,38.60
2018-04-13T00:27:13.555Z,39.20
2018-04-13T00:28:13.634Z,39.50
2018-04-13T00:29:13.618Z,40.10
2018-04-13T00:30:13.603Z,38.50
2018-04-13T00:31:13.601Z,37.60
2018-04-13T00:32:13.605Z,38.40
2018-04-13T00:33:13.666Z,38.70
2018-04-13T00:34:13.632Z,38.80
2018-04-13T00:35:13.787Z,38.00
2018-04-13T00:36:13.668Z,39.10
2018-04-13T00:37:13.699Z,38.10
2018-04-13T00:38:13.681Z,37.90
2018-04-13T00:39:13.715Z,39.20
2018-04-13T00:40:13.769Z,38.30
2018-04-13T00:41:13.730Z,38.60
2018-04-13T00:42:13.745Z,39.00
2018-04-13T00:43:13.769Z,38.70
2018-04-13T00:44:13.793Z,39.30
2018-04-13T00:45:13.855Z,39.10
2018-04-13T00:46:13.798Z,38.50
2018-04-13T00:47:13.803Z,37.60
2018-04-13T00:48:13.855Z,38.50
2018-04-13T00:49:13.836Z,38.60
2018-04-13T00:50:13.907Z,38.20
2018-04-13T00:51:13.870Z,38.70
2018-04-13T00:52:13.877Z,38.30
2018-04-13T00:53:13.890Z,38.40
2018-04-13T00:54:13.917Z,37.60
2018-04-13T00:55:13.946Z,37.00
2018-04-13T00:56:13.924Z,39.00
2018-04-13T00:57:13.934Z,37.20
2018-04-13T00:58:13.963Z,38.60
2018-04-13T00:59:14.035Z,38.40
2018-04-13T01:00:14.013Z,38.00
2018-04-13T01:01:14.019Z,37.70
2018-04-13T01:02:14.000Z,38.40
2018-04-13T01:03:14.015Z,37.60
2018-04-13T01:04:14.028Z,38.30
2018-04-13T01:05:14.068Z,37.30
2018-04-13T01:06:14.095Z,38.20
2018-04-13T01:07:14.058Z,37.50
2018-04-13T01:08:14.074Z,37.40
2018-04-13T01:09:14.080Z,38.80
2018-04-13T01:10:14.131Z,39.00
2018-04-13T01:11:14.165Z,38.40
2018-04-13T01:12:14.118Z,36.70
2018-04-13T01:13:14.147Z,37.80
2018-04-13T01:14:14.193Z,38.00
2018-04-13T01:15:14.175Z,37.70
2018-04-13T01:16:14.265Z,37.70
2018-04-13T01:17:14.213Z,37.30
2018-04-13T01:18:14.214Z,38.00
2018-04-13T01:19:14.217Z,36.80
2018-04-13T01:20:14.236Z,36.70
2018-04-13T01:21:14.379Z,38.00
2018-04-13T01:22:14.265Z,37.20
2018-04-13T01:23:14.285Z,38.30
2018-04-13T01:24:14.322Z,38.20
2018-04-13T01:25:14.288Z,37.50
2018-04-13T01:26:14.346Z,37.90
2018-04-13T01:27:14.365Z,37.30
2018-04-13T01:28:14.346Z,37.50
2018-04-13T01:29:14.352Z,36.60
2018-04-13T01:30:14.361Z,36.00
2018-04-13T01:31:14.386Z,37.10
2018-04-13T01:32:14.415Z,37.70
2018-04-13T01:33:14.456Z,37.10
2018-04-13T01:34:14.435Z,37.10
2018-04-13T01:35:14.416Z,36.80
2018-04-13T01:36:14.463Z,35.80
2018-04-13T01:37:14.469Z,36.60
2018-04-13T01:38:14.492Z,37.00
2018-04-13T01:39:14.493Z,36.30
2018-04-13T01:40:14.530Z,36.20
2018-04-13T01:41:14.499Z,35.70
2018-04-13T01:42:14.512Z,35.50
2018-04-13T01:43:14.574Z,35.80
2018-04-13T01:44:14.536Z,36.10
2018-04-13T01:45:14.567Z,36.40
2018-04-13T01:46:14.575Z,36.40
2018-04-13T01:47:14.604Z,35.80
2018-04-13T01:48:14.635Z,35.50
2018-04-13T01:49:14.616Z,35.50
2018-04-13T01:50:14.619Z,36.00
2018-04-13T01:51:14.629Z,36.70
2018-04-13T01:52:14.643Z,35.30
2018-04-13T01:53:14.726Z,35.80
2018-04-13T01:54:14.699Z,36.00
2018-04-13T01:55:14.694Z,35.60
2018-04-13T01:56:14.699Z,35.80
2018-04-13T01:57:14.721Z,35.20
2018-04-13T01:58:14.782Z,37.20
2018-04-13T01:59:14.794Z,36.20
2018-04-13T02:00:14.742Z,34.80
2018-04-13T02:01:14.780Z,35.60
2018-04-13T02:02:14.807Z,35.60
2018-04-13T02:03:14.791Z,35.60
2018-04-13T02:04:14.817Z,36.00
2018-04-13T02:05:14.861Z,35.90
2018-04-13T02:06:14.832Z,35.40
2018-04-13T02:07:14.843Z,35.30
2018-04-13T02:08:14.847Z,35.80
2018-04-13T02:09:14.873Z,34.70
2018-04-13T02:10:14.974Z,35.60
2018-04-13T02:11:14.918Z,35.50
2018-04-13T02:12:14.920Z,35.30
2018-04-13T02:13:14.942Z,36.00
2018-04-13T02:14:14.927Z,35.70
2018-04-13T02:15:14.949Z,34.90
2018-04-13T02:16:14.997Z,35.80
2018-04-13T02:17:14.970Z,35.20
2018-04-13T02:18:14.983Z,35.40
2018-04-13T02:19:15.013Z,35.80
2018-04-13T02:20:15.025Z,36.30
2018-04-13T02:21:15.288Z,35.60
2018-04-13T02:22:15.048Z,35.00
2018-04-13T02:23:15.042Z,35.30
2018-04-13T02:24:15.083Z,35.70
2018-04-13T02:25:15.136Z,35.80
2018-04-13T02:26:15.086Z,35.80
2018-04-13T02:27:15.116Z,37.00
2018-04-13T02:28:15.125Z,35.80
2018-04-13T02:29:15.139Z,36.20
2018-04-13T02:30:15.145Z,36.60
2018-04-13T02:31:15.172Z,36.10
2018-04-13T02:32:15.216Z,35.60
2018-04-13T02:33:15.180Z,36.30
2018-04-13T02:34:15.212Z,36.40
2018-04-13T02:35:15.220Z,36.20
2018-04-13T02:36:15.242Z,36.10
2018-04-13T02:37:15.271Z,35.00
2018-04-13T02:38:15.243Z,36.10
2018-04-13T02:39:15.270Z,35.80
2018-04-13T02:40:15.283Z,35.90
2018-04-13T02:41:15.278Z,36.00
2018-04-13T02:42:15.324Z,35.70
2018-04-13T02:43:15.346Z,36.40
2018-04-13T02:44:15.360Z,36.00
2018-04-13T02:45:15.346Z,35.90
2018-04-13T02:46:15.372Z,36.10
2018-04-13T02:47:15.382Z,36.50
2018-04-13T02:48:15.375Z,35.80
2018-04-13T02:49:15.453Z,36.80
2018-04-13T02:50:15.390Z,35.90
2018-04-13T02:51:15.402Z,36.60
2018-04-13T02:52:15.436Z,36.40
2018-04-13T02:53:15.468Z,36.10
2018-04-13T02:54:15.507Z,35.50
2018-04-13T02:55:15.478Z,35.50
2018-04-13T02:56:15.489Z,35.10
2018-04-13T02:57:15.504Z,35.80
2018-04-13T02:58:15.508Z,35.40
2018-04-13T02:59:15.554Z,36.30
2018-04-13T03:00:15.546Z,35.90
2018-04-13T03:01:15.646Z,37.10
2018-04-13T03:02:15.559Z,36.80
2018-04-13T03:03:15.625Z,36.30
2018-04-13T03:04:15.597Z,38.10
2018-04-13T03:05:15.621Z,37.00
2018-04-13T03:06:15.665Z,36.90
2018-04-13T03:07:15.618Z,36.40
2018-04-13T03:08:15.628Z,36.70
2018-04-13T03:09:15.633Z,38.20
2018-04-13T03:10:15.660Z,38.50
2018-04-13T03:11:15.701Z,38.70
2018-04-13T03:12:15.754Z,37.00
2018-04-13T03:13:15.696Z,37.40
2018-04-13T03:14:15.707Z,37.10
2018-04-13T03:15:15.714Z,38.20
2018-04-13T03:16:15.733Z,36.80
2018-04-13T03:17:15.750Z,38.30
2018-04-13T03:18:15.788Z,37.50
2018-04-13T03:19:15.788Z,37.70
2018-04-13T03:20:15.793Z,37.40
2018-04-13T03:21:15.795Z,37.80
2018-04-13T03:22:15.823Z,38.10
2018-04-13T03:23:15.870Z,38.30
2018-04-13T03:24:15.860Z,37.90
2018-04-13T03:25:15.878Z,37.20
2018-04-13T03:26:15.846Z,37.40
2018-04-13T03:27:15.876Z,37.20
2018-04-13T03:28:15.903Z,37.50
2018-04-13T03:29:15.954Z,38.20
2018-04-13T03:30:15.933Z,38.30
2018-04-13T03:31:15.961Z,37.30
2018-04-13T03:32:15.924Z,37.30
2018-04-13T03:33:15.936Z,37.70
2018-04-13T03:34:15.996Z,37.20
2018-04-13T03:35:16.036Z,38.10
2018-04-13T03:36:16.005Z,37.30
2018-04-13T03:37:15.993Z,38.40
2018-04-13T03:38:16.009Z,37.60
2018-04-13T03:39:16.010Z,38.20
2018-04-13T03:40:16.067Z,37.20
2018-04-13T03:41:16.040Z,38.10
2018-04-13T03:42:16.061Z,38.00
2018-04-13T03:43:16.115Z,37.40
2018-04-13T03:44:16.071Z,36.90
2018-04-13T03:45:16.116Z,37.60
2018-04-13T03:46:16.142Z,36.90
2018-04-13T03:47:16.136Z,37.30
2018-04-13T03:48:16.183Z,37.60
2018-04-13T03:49:16.184Z,37.30
2018-04-13T03:50:16.187Z,37.30
2018-04-13T03:51:16.175Z,37.40
2018-04-13T03:52:16.183Z,37.00
2018-04-13T03:53:16.223Z,37.00
2018-04-13T03:54:16.212Z,37.90
2018-04-13T03:55:16.217Z,37.00
2018-04-13T03:56:16.250Z,37.30
2018-04-13T03:57:16.238Z,37.30
2018-04-13T03:58:16.278Z,35.50
2018-04-13T03:59:16.271Z,37.90
2018-04-13T04:00:16.314Z,36.80
2018-04-13T04:01:16.306Z,37.80
2018-04-13T04:02:16.318Z,37.40
2018-04-13T04:03:16.361Z,37.10
2018-04-13T04:04:16.342Z,37.90
2018-04-13T04:05:16.336Z,36.70
2018-04-13T04:06:16.369Z,37.20
2018-04-13T04:07:16.377Z,37.80
2018-04-13T04:08:16.428Z,37.20
2018-04-13T04:09:16.409Z,36.80
2018-04-13T04:10:16.402Z,37.90
2018-04-13T04:11:16.440Z,37.10
2018-04-13T04:12:16.451Z,36.30
2018-04-13T04:13:16.485Z,37.40
2018-04-13T04:14:16.461Z,36.50
2018-04-13T04:15:16.469Z,37.60
2018-04-13T04:16:16.485Z,36.90
2018-04-13T04:17:16.511Z,37.20
2018-04-13T04:18:16.542Z,36.50
2018-04-13T04:19:16.524Z,36.90
2018-04-13T04:20:16.532Z,36.40
2018-04-13T04:21:16.561Z,37.30
2018-04-13T04:22:16.572Z,35.70
2018-04-13T04:23:16.645Z,37.00
2018-04-13T04:24:16.620Z,37.00
2018-04-13T04:25:16.607Z,36.50
2018-04-13T04:26:16.648Z,36.10
2018-04-13T04:27:16.635Z,36.20
2018-04-13T04:28:16.670Z,37.00
2018-04-13T04:29:16.674Z,37.50
2018-04-13T04:30:16.695Z,37.30
2018-04-13T04:31:16.685Z,37.00
2018-04-13T04:32:16.690Z,35.90
2018-04-13T04:33:16.725Z,37.00
2018-04-13T04:34:16.747Z,36.30
2018-04-13T04:35:16.862Z,37.40
2018-04-13T04:36:16.796Z,37.10
2018-04-13T04:37:16.798Z,36.70
2018-04-13T04:38:16.770Z,36.20
2018-04-13T04:39:16.783Z,36.80
2018-04-13T04:40:16.791Z,36.40
2018-04-13T04:41:16.849Z,37.10
2018-04-13T04:42:16.818Z,36.70
2018-04-13T04:43:16.839Z,36.90
2018-04-13T04:44:16.865Z,37.60
2018-04-13T04:45:16.872Z,36.80
2018-04-13T04:46:16.911Z,36.60
2018-04-13T04:47:16.892Z,36.50
2018-04-13T04:48:16.922Z,37.00
2018-04-13T04:49:16.908Z,36.40
2018-04-13T04:50:16.959Z,36.70
2018-04-13T04:51:16.971Z,37.90
2018-04-13T04:52:16.936Z,37.90
2018-04-13T04:53:16.991Z,36.10
2018-04-13T04:54:16.961Z,36.80
2018-04-13T04:55:17.014Z,36.30
2018-04-13T04:56:16.995Z,37.90
2018-04-13T04:57:17.013Z,36.00
2018-04-13T04:58:17.082Z,35.50
2018-04-13T04:59:17.050Z,36.70
2018-04-13T05:00:17.090Z,36.30
2018-04-13T05:01:17.056Z,36.30
2018-04-13T05:02:17.081Z,36.20
2018-04-13T05:03:17.116Z,36.80
2018-04-13T05:04:17.118Z,36.50
2018-04-13T05:05:17.138Z,37.80
2018-04-13T05:06:17.154Z,36.90
2018-04-13T05:07:17.179Z,36.10
2018-04-13T05:08:17.203Z,37.60
2018-04-13T05:09:17.166Z,36.70
2018-04-13T05:10:17.195Z,36.30
2018-04-13T05:11:17.204Z,35.80
2018-04-13T05:12:17.208Z,36.80
2018-04-13T05:13:17.241Z,36.50
2018-04-13T05:14:17.229Z,36.30
2018-04-13T05:15:17.248Z,36.40
2018-04-13T05:16:17.299Z,35.80
2018-04-13T05:17:17.311Z,36.50
2018-04-13T05:18:17.272Z,35.50
2018-04-13T05:19:17.292Z,36.10
2018-04-13T05:20:17.325Z,34.80
2018-04-13T05:21:17.355Z,34.60
2018-04-13T05:22:17.337Z,34.50
2018-04-13T05:23:17.397Z,34.20
2018-04-13T05:24:17.361Z,35.30
2018-04-13T05:25:17.366Z,35.00
2018-04-13T05:26:17.433Z,34.90
2018-04-13T05:27:17.400Z,34.50
2018-04-13T05:28:17.450Z,34.50
2018-04-13T05:29:17.419Z,33.20
2018-04-13T05:30:17.460Z,33.80
2018-04-13T05:31:17.492Z,33.90
2018-04-13T05:32:17.474Z,34.20
2018-04-13T05:33:17.476Z,35.30
2018-04-13T05:34:17.487Z,34.30
2018-04-13T05:35:17.609Z,34.10
2018-04-13T05:36:17.578Z,33.10
2018-04-13T05:37:17.596Z,33.80
2018-04-13T05:38:17.525Z,33.80
2018-04-13T05:39:17.564Z,33.50
2018-04-13T05:40:17.633Z,34.30
2018-04-13T05:41:17.576Z,34.00
2018-04-13T05:42:17.648Z,32.60
2018-04-13T05:43:17.609Z,33.50
2018-04-13T05:44:17.616Z,34.50
2018-04-13T05:45:17.612Z,34.20
2018-04-13T05:46:17.648Z,34.70
2018-04-13T05:47:17.712Z,34.50
2018-04-13T05:48:17.811Z,33.10
2018-04-13T05:49:17.681Z,33.40
2018-04-13T05:50:17.730Z,34.30
2018-04-13T05:51:17.693Z,34.40
2018-04-13T05:52:17.751Z,34.20
2018-04-13T05:53:17.727Z,33.70
2018-04-13T05:54:17.729Z,33.40
2018-04-13T05:55:17.825Z,34.20
2018-04-13T05:56:17.907Z,33.20
2018-04-13T05:57:17.780Z,33.10
2018-04-13T05:58:17.793Z,32.60
2018-04-13T05:59:17.858Z,33.80
2018-04-13T06:00:17.820Z,33.10
2018-04-13T06:01:17.866Z,33.10
2018-04-13T06:02:17.838Z,30.60
2018-04-13T06:03:17.856Z,31.50
2018-04-13T06:04:17.906Z,32.50
2018-04-13T06:05:17.934Z,31.90
2018-04-13T06:06:17.894Z,31.60
2018-04-13T06:07:17.907Z,30.50
2018-04-13T06:08:17.931Z,30.90
2018-04-13T06:09:17.938Z,30.00
2018-04-13T06:10:17.995Z,30.40
2018-04-13T06:11:17.948Z,29.50
2018-04-13T06:12:17.987Z,30.70
2018-04-13T06:13:17.973Z,30.00
2018-04-13T06:14:17.999Z,29.40
2018-04-13T06:15:18.036Z,29.20
2018-04-13T06:16:18.017Z,29.80
2018-04-13T06:17:18.050Z,29.70
2018-04-13T06:18:18.063Z,29.40
2018-04-13T06:19:18.050Z,28.40
2018-04-13T06:20:18.090Z,27.70
2018-04-13T06:21:18.106Z,28.10
2018-04-13T06:22:18.127Z,28.60
2018-04-13T06:23:18.114Z,28.20
2018-04-13T06:24:18.191Z,29.10
2018-04-13T06:25:18.151Z,28.00
2018-04-13T06:26:18.153Z,29.80
2018-04-13T06:27:18.178Z,28.80
2018-04-13T06:28:18.250Z,28.90
2018-04-13T06:29:18.216Z,29.70
2018-04-13T06:30:18.226Z,29.00
2018-04-13T06:31:18.223Z,30.90
2018-04-13T06:32:18.219Z,31.80
2018-04-13T06:33:18.230Z,31.10
2018-04-13T06:34:18.295Z,32.40
2018-04-13T06:35:18.310Z,35.90
2018-04-13T06:36:18.285Z,32.70
2018-04-13T06:37:18.311Z,33.80
2018-04-13T06:38:18.294Z,33.20
2018-04-13T06:39:18.377Z,33.20
2018-04-13T06:40:18.350Z,33.90
2018-04-13T06:41:18.358Z,33.90
2018-04-13T06:42:18.370Z,35.20
2018-04-13T06:43:18.418Z,35.70
2018-04-13T06:44:18.459Z,34.40
2018-04-13T06:45:18.396Z,32.20
2018-04-13T06:46:18.431Z,34.30
2018-04-13T06:47:18.427Z,34.00
2018-04-13T06:48:18.480Z,33.40
2018-04-13T06:49:18.488Z,31.50
2018-04-13T06:50:18.477Z,34.00
2018-04-13T06:51:18.486Z,31.80
2018-04-13T06:52:18.493Z,32.10
2018-04-13T06:53:18.499Z,32.40
2018-04-13T06:54:18.564Z,35.20
2018-04-13T06:55:18.515Z,34.50
2018-04-13T06:56:18.527Z,32.60
2018-04-13T06:57:18.552Z,51.00
2018-04-13T06:58:18.575Z,32.90
2018-04-13T06:59:18.618Z,31.40
2018-04-13T07:00:18.593Z,31.80
2018-04-13T07:01:18.651Z,31.60
2018-04-13T07:02:18.695Z,31.20
2018-04-13T07:03:18.701Z,31.60
2018-04-13T07:04:18.663Z,32.30
2018-04-13T07:05:18.655Z,31.10
2018-04-13T07:06:18.730Z,31.60
2018-04-13T07:07:18.682Z,32.60
2018-04-13T07:08:18.798Z,31.80
2018-04-13T07:09:18.815Z,34.70
2018-04-13T07:10:18.702Z,34.60
2018-04-13T07:11:18.737Z,30.40
2018-04-13T07:12:18.752Z,31.40
2018-04-13T07:13:18.766Z,32.60
2018-04-13T07:14:18.753Z,31.80
2018-04-13T07:15:18.851Z,32.90
2018-04-13T07:16:18.780Z,31.30
2018-04-13T07:17:18.807Z,30.60
2018-04-13T07:18:18.851Z,31.40
2018-04-13T07:19:18.871Z,31.80
2018-04-13T07:20:18.879Z,31.60
2018-04-13T07:21:18.851Z,31.10
2018-04-13T07:22:18.857Z,29.90
2018-04-13T07:23:18.995Z,30.50
2018-04-13T07:24:18.889Z,30.50
2018-04-13T07:25:18.909Z,30.30
2018-04-13T07:26:18.914Z,31.30
2018-04-13T07:27:18.929Z,31.20
2018-04-13T07:28:18.996Z,30.50
2018-04-13T07:29:18.953Z,31.20
2018-04-13T07:30:19.000Z,33.20
2018-04-13T07:31:18.977Z,38.60
2018-04-13T07:32:18.987Z,34.90
2018-04-13T07:33:19.065Z,32.00
2018-04-13T07:34:19.036Z,34.00
2018-04-13T07:35:19.108Z,34.40
2018-04-13T07:36:19.041Z,33.80
2018-04-13T07:37:19.059Z,31.70
2018-04-13T07:38:19.153Z,36.20
2018-04-13T07:39:19.112Z,34.30
2018-04-13T07:40:19.085Z,33.00
2018-04-13T07:41:19.109Z,33.00
2018-04-13T07:42:19.110Z,32.60
2018-04-13T07:43:19.227Z,32.40
2018-04-13T07:44:19.146Z,33.40
2018-04-13T07:45:19.159Z,34.00
2018-04-13T07:46:19.174Z,34.00
2018-04-13T07:47:19.221Z,33.70
2018-04-13T07:48:19.183Z,36.10
2018-04-13T07:49:19.210Z,39.10
2018-04-13T07:50:19.684Z,40.10
2018-04-13T07:51:19.245Z,38.10
2018-04-13T07:52:19.789Z,37.90
2018-04-13T07:53:19.278Z,36.20
2018-04-13T07:54:19.299Z,38.60
2018-04-13T07:55:19.283Z,39.00
2018-04-13T07:56:19.314Z,40.90
2018-04-13T07:57:19.304Z,40.50
2018-04-13T07:58:19.313Z,38.80
2018-04-13T07:59:19.371Z,42.00
2018-04-13T08:00:19.731Z,43.50
2018-04-13T08:01:19.367Z,47.30
2018-04-13T08:02:19.375Z,47.10
2018-04-13T08:03:19.391Z,46.80
2018-04-13T08:04:19.551Z,52.00
2018-04-13T08:05:19.694Z,51.30
2018-04-13T08:06:19.462Z,48.90
2018-04-13T08:07:19.450Z,43.50
2018-04-13T08:08:19.450Z,44.20
2018-04-13T08:09:19.473Z,42.40
2018-04-13T08:10:19.504Z,39.70
2018-04-13T08:11:19.498Z,43.70
2018-04-13T08:12:19.575Z,41.70
2018-04-13T08:13:19.520Z,42.90
2018-04-13T08:14:19.583Z,41.20
2018-04-13T08:15:19.533Z,41.30
2018-04-13T08:16:19.550Z,39.80
2018-04-13T08:17:19.569Z,40.90
2018-04-13T08:18:19.591Z,41.40
2018-04-13T08:19:19.592Z,41.20
2018-04-13T08:20:19.602Z,40.40
2018-04-13T08:21:19.628Z,40.00
2018-04-13T08:22:19.627Z,39.50
2018-04-13T08:23:19.685Z,41.90
2018-04-13T08:24:19.749Z,44.80
2018-04-13T08:25:19.664Z,44.80
2018-04-13T08:26:19.687Z,41.90
2018-04-13T08:27:19.684Z,41.90
2018-04-13T08:28:19.748Z,42.00
2018-04-13T08:29:19.724Z,41.40
2018-04-13T08:30:19.753Z,45.60
2018-04-13T08:31:19.745Z,43.10
2018-04-13T08:32:19.773Z,40.50
2018-04-13T08:33:19.797Z,42.60
2018-04-13T08:34:19.784Z,39.90
2018-04-13T08:35:19.850Z,43.20
2018-04-13T08:36:19.825Z,41.90
2018-04-13T08:37:19.806Z,40.80
2018-04-13T08:38:19.864Z,41.30
2018-04-13T08:39:19.830Z,42.10
2018-04-13T08:40:19.880Z,42.40
2018-04-13T08:41:19.871Z,39.60
2018-04-13T08:42:19.882Z,40.30
2018-04-13T08:43:19.899Z,41.50
2018-04-13T08:44:19.952Z,39.70
2018-04-13T08:45:19.972Z,39.70
2018-04-13T08:46:19.956Z,39.30
2018-04-13T08:47:20.008Z,39.00
2018-04-13T08:48:19.975Z,40.80
2018-04-13T08:49:19.975Z,40.10
2018-04-13T08:50:20.024Z,38.90
2018-04-13T08:51:20.000Z,40.90
2018-04-13T08:52:20.046Z,38.90
2018-04-13T08:53:20.029Z,38.80
2018-04-13T08:54:20.026Z,38.00
2018-04-13T08:55:20.061Z,37.40
2018-04-13T08:56:20.082Z,37.20
2018-04-13T08:57:20.111Z,39.00
2018-04-13T08:58:20.077Z,40.70
2018-04-13T08:59:20.091Z,39.90
2018-04-13T09:00:20.142Z,39.50
2018-04-13T09:01:20.110Z,37.10
2018-04-13T09:02:20.132Z,37.60
2018-04-13T09:03:20.151Z,38.40
2018-04-13T09:04:20.158Z,39.80
2018-04-13T09:05:20.240Z,35.90
2018-04-13T09:06:20.229Z,34.60
2018-04-13T09:07:20.203Z,37.50
2018-04-13T09:08:20.220Z,36.00
2018-04-13T09:09:20.214Z,37.00
2018-04-13T09:10:20.300Z,34.80
2018-04-13T09:11:20.242Z,34.10
2018-04-13T09:12:20.267Z,33.00
2018-04-13T09:13:20.322Z,34.50
2018-04-13T09:14:20.275Z,34.70
2018-04-13T09:15:20.353Z,35.90
2018-04-13T09:16:20.296Z,33.90
2018-04-13T09:17:20.322Z,34.00
2018-04-13T09:18:20.335Z,34.60
2018-04-13T09:19:20.339Z,34.20
2018-04-13T09:20:20.417Z,34.50
2018-04-13T09:21:20.368Z,35.60
2018-04-13T09:22:20.383Z,34.90
2018-04-13T09:23:20.430Z,35.80
2018-04-13T09:24:20.401Z,34.00
2018-04-13T09:25:20.459Z,34.80
2018-04-13T09:26:20.443Z,33.10
2018-04-13T09:27:20.488Z,32.80
2018-04-13T09:28:20.456Z,32.50
2018-04-13T09:29:20.478Z,32.00
2018-04-13T09:30:20.534Z,31.60
2018-04-13T09:31:20.485Z,31.50
2018-04-13T09:32:20.512Z,31.90
2018-04-13T09:33:20.509Z,30.20
2018-04-13T09:34:20.546Z,30.00
2018-04-13T09:35:20.594Z,30.90
2018-04-13T09:36:20.584Z,31.00
2018-04-13T09:37:20.570Z,31.50
2018-04-13T09:38:20.638Z,32.90
2018-04-13T09:39:20.602Z,35.00
2018-04-13T09:40:20.642Z,33.20
2018-04-13T09:41:20.639Z,33.80
2018-04-13T09:42:20.664Z,33.10
2018-04-13T09:43:20.681Z,34.80
2018-04-13T09:44:20.683Z,36.40
2018-04-13T09:45:20.692Z,36.20
2018-04-13T09:46:20.687Z,36.50
2018-04-13T09:47:20.746Z,37.60
2018-04-13T09:48:20.707Z,36.40
2018-04-13T09:49:20.746Z,36.60
2018-04-13T09:50:20.780Z,35.80
2018-04-13T09:51:20.757Z,35.90
2018-04-13T09:52:20.753Z,36.10
2018-04-13T09:53:20.772Z,36.50
2018-04-13T09:54:20.800Z,37.10
2018-04-13T09:55:20.865Z,37.00
2018-04-13T09:56:20.820Z,37.40
2018-04-13T09:57:20.830Z,36.40
2018-04-13T09:58:20.900Z,35.60
2018-04-13T09:59:20.860Z,37.60
2018-04-13T10:00:20.880Z,37.70
2018-04-13T10:01:20.898Z,37.80
2018-04-13T10:02:20.890Z,37.70
2018-04-13T10:03:20.986Z,39.70
2018-04-13T10:04:20.922Z,38.90
2018-04-13T10:05:20.930Z,38.50
2018-04-13T10:06:20.950Z,39.40
2018-04-13T10:07:20.974Z,38.50
2018-04-13T10:08:21.008Z,38.60
2018-04-13T10:09:20.984Z,38.40
2018-04-13T10:10:21.032Z,40.10
2018-04-13T10:11:21.017Z,38.90
2018-04-13T10:12:21.058Z,39.00
2018-04-13T10:13:21.091Z,39.60
2018-04-13T10:14:21.058Z,40.80
2018-04-13T10:15:21.059Z,40.50
2018-04-13T10:16:21.100Z,40.20
2018-04-13T10:17:21.123Z,39.10
2018-04-13T10:18:21.160Z,39.30
2018-04-13T10:19:21.114Z,39.40
2018-04-13T10:20:21.122Z,40.20
2018-04-13T10:21:21.174Z,40.10
2018-04-13T10:22:21.173Z,40.40
2018-04-13T10:23:21.198Z,42.30
2018-04-13T10:24:21.188Z,42.30
2018-04-13T10:25:21.210Z,41.90
2018-04-13T10:26:21.256Z,42.00
2018-04-13T10:27:21.219Z,41.50
2018-04-13T10:28:21.240Z,43.60
2018-04-13T10:29:21.249Z,43.00
2018-04-13T10:30:21.264Z,42.80
2018-04-13T10:31:21.318Z,42.90
2018-04-13T10:32:21.311Z,42.70
2018-04-13T10:33:21.365Z,42.50
2018-04-13T10:34:21.325Z,41.80
2018-04-13T10:35:21.326Z,43.60
2018-04-13T10:36:21.402Z,41.30
2018-04-13T10:37:21.383Z,43.00
2018-04-13T10:38:21.373Z,42.90
2018-04-13T10:39:21.401Z,43.70
2018-04-13T10:40:21.428Z,44.20
2018-04-13T10:41:21.482Z,43.60
2018-04-13T10:42:21.474Z,44.80
2018-04-13T10:43:21.441Z,43.10
2018-04-13T10:44:21.504Z,43.90
2018-04-13T10:45:21.455Z,45.40
2018-04-13T10:46:21.470Z,43.80
2018-04-13T10:47:21.494Z,45.20
2018-04-13T10:48:21.502Z,44.50
2018-04-13T10:49:21.589Z,43.70
2018-04-13T10:50:21.545Z,43.50
2018-04-13T10:51:21.535Z,44.40
2018-04-13T10:52:21.611Z,44.20
2018-04-13T10:53:21.574Z,44.80
2018-04-13T10:54:21.618Z,45.20
2018-04-13T10:55:21.608Z,42.60
2018-04-13T10:56:21.626Z,44.70
2018-04-13T10:57:21.659Z,44.80
2018-04-13T10:58:21.653Z,46.10
2018-04-13T10:59:21.669Z,43.80
2018-04-13T11:00:21.657Z,45.90
2018-04-13T11:01:21.678Z,47.80
2018-04-13T11:02:21.739Z,45.70
2018-04-13T11:03:21.742Z,44.80
2018-04-13T11:04:21.762Z,44.90
2018-04-13T11:05:21.718Z,43.50
2018-04-13T11:06:21.748Z,44.40
2018-04-13T11:07:21.772Z,41.80
2018-04-13T11:08:21.825Z,41.70
2018-04-13T11:09:21.789Z,41.10
2018-04-13T11:10:21.825Z,42.20
2018-04-13T11:11:21.827Z,42.50
2018-04-13T11:12:21.825Z,49.30
2018-04-13T11:13:21.861Z,43.10
2018-04-13T11:14:21.874Z,38.20
2018-04-13T11:15:21.869Z,39.70
2018-04-13T11:16:21.893Z,38.90
2018-04-13T11:17:21.928Z,35.20
2018-04-13T11:18:21.901Z,35.10
2018-04-13T11:19:21.906Z,34.80
2018-04-13T11:20:21.938Z,34.20
2018-04-13T11:21:21.948Z,33.30
2018-04-13T11:22:21.993Z,33.30
2018-04-13T11:23:21.970Z,33.40
2018-04-13T11:24:21.973Z,31.80
2018-04-13T11:25:22.038Z,32.20
2018-04-13T11:26:22.000Z,29.80
2018-04-13T11:27:22.051Z,31.40
2018-04-13T11:28:22.032Z,29.50
2018-04-13T11:29:22.039Z,28.60
2018-04-13T11:30:22.047Z,27.30
2018-04-13T11:31:22.092Z,28.90
2018-04-13T11:32:22.116Z,28.10
2018-04-13T11:33:22.125Z,27.50
2018-04-13T11:34:22.104Z,26.40
2018-04-13T11:35:22.124Z,29.20
2018-04-13T11:36:22.209Z,26.90
2018-04-13T11:37:22.135Z,27.40
2018-04-13T11:38:22.157Z,27.60
2018-04-13T11:39:22.190Z,27.50
2018-04-13T11:40:22.209Z,27.90
2018-04-13T11:41:22.333Z,26.90
2018-04-13T11:42:22.225Z,24.60
2018-04-13T11:43:22.230Z,22.90
2018-04-13T11:44:22.270Z,21.90
2018-04-13T11:45:22.253Z,25.10
2018-04-13T11:46:22.299Z,26.10
2018-04-13T11:47:22.281Z,23.80
2018-04-13T11:48:22.314Z,22.40
2018-04-13T11:49:22.328Z,22.80
2018-04-13T11:50:22.327Z,22.50
2018-04-13T11:51:22.389Z,22.20
2018-04-13T11:52:22.343Z,23.40
2018-04-13T11:53:22.363Z,21.50
2018-04-13T11:54:22.381Z,22.30
2018-04-13T11:55:22.394Z,20.80
2018-04-13T11:56:22.441Z,22.00
2018-04-13T11:57:22.434Z,20.40
2018-04-13T11:58:22.445Z,19.20
2018-04-13T11:59:22.446Z,19.40
2018-04-13T12:00:22.475Z,18.80
2018-04-13T12:01:22.508Z,19.60
2018-04-13T12:02:22.483Z,19.60
2018-04-13T12:03:22.504Z,18.40
2018-04-13T12:04:22.554Z,18.20
2018-04-13T12:05:22.522Z,18.10
2018-04-13T12:06:22.601Z,18.30
2018-04-13T12:07:22.555Z,19.20
2018-04-13T12:08:22.571Z,18.20
2018-04-13T12:09:22.581Z,19.30
2018-04-13T12:10:22.604Z,19.50
2018-04-13T12:11:22.651Z,17.80
2018-04-13T12:12:22.614Z,17.70
2018-04-13T12:13:22.656Z,16.60
2018-04-13T12:14:22.650Z,18.00
2018-04-13T12:15:22.662Z,17.20
2018-04-13T12:16:22.709Z,16.40
2018-04-13T12:17:22.731Z,16.00
2018-04-13T12:18:22.708Z,15.10
2018-04-13T12:19:22.727Z,14.20
2018-04-13T12:20:22.829Z,16.30
2018-04-13T12:21:22.774Z,13.80
2018-04-13T12:22:22.833Z,14.70
2018-04-13T12:23:22.789Z,14.30
2018-04-13T12:24:22.856Z,14.10
2018-04-13T12:25:22.803Z,16.10
2018-04-13T12:26:22.865Z,14.50
2018-04-13T12:27:22.829Z,12.70
2018-04-13T12:28:22.857Z,14.40
2018-04-13T12:29:22.853Z,14.50
2018-04-13T12:30:22.875Z,16.20
2018-04-13T12:31:22.949Z,13.60
2018-04-13T12:32:22.889Z,13.60
2018-04-13T12:33:22.959Z,14.40
2018-04-13T12:34:22.923Z,15.20
2018-04-13T12:35:23.053Z,15.70
2018-04-13T12:36:22.958Z,16.40
2018-04-13T12:37:22.966Z,14.10
2018-04-13T12:38:23.043Z,14.80
2018-04-13T12:39:23.016Z,13.60
2018-04-13T12:40:23.074Z,13.70
2018-04-13T12:41:23.044Z,13.30
2018-04-13T12:42:23.027Z,14.30
2018-04-13T12:43:23.090Z,14.90
2018-04-13T12:44:23.067Z,13.40
2018-04-13T12:45:23.113Z,11.30
2018-04-13T12:46:23.098Z,12.10
2018-04-13T12:47:23.113Z,13.40
2018-04-13T12:48:23.168Z,13.10
2018-04-13T12:49:23.174Z,15.70
2018-04-13T12:50:23.159Z,16.80
2018-04-13T12:51:23.157Z,13.30
2018-04-13T12:52:23.194Z,13.70